createdAt,value
2019-03-10T00:00:42.390Z,81.20
2019-03-10T00:03:11.256Z,79.50
2019-03-10T00:05:40.102Z,80.80
2019-03-10T00:08:08.932Z,81.00
2019-03-10T00:10:37.787Z,79.80
2019-03-10T00:13:06.589Z,80.60
2019-03-10T00:15:35.476Z,80.40
2019-03-10T00:18:04.318Z,79.50
2019-03-10T00:20:33.245Z,81.60
2019-03-10T00:23:02.088Z,79.90
2019-03-10T00:25:30.939Z,81.60
2019-03-10T00:27:59.797Z,82.00
2019-03-10T00:30:28.619Z,82.00
2019-03-10T00:32:57.503Z,84.30
2019-03-10T00:35:26.448Z,83.30
2019-03-10T00:37:55.307Z,84.10
2019-03-10T00:40:56.017Z,82.00
2019-03-10T00:43:53.193Z,83.70
2019-03-10T00:46:43.351Z,81.90
2019-03-10T00:49:43.965Z,81.40
2019-03-10T00:52:18.535Z,80.20
2019-03-10T00:54:47.419Z,81.40
2019-03-10T00:57:16.229Z,79.90
2019-03-10T00:59:45.077Z,81.60
2019-03-10T01:02:13.899Z,85.60
2019-03-10T01:04:42.785Z,90.40
2019-03-10T01:07:11.642Z,91.80
2019-03-10T01:09:40.488Z,93.50
2019-03-10T01:12:09.671Z,95.40
2019-03-10T01:14:38.548Z,96.80
2019-03-10T01:17:07.359Z,97.60
2019-03-10T01:19:37.580Z,99.30
2019-03-10T01:22:06.376Z,99.90
2019-03-10T01:24:35.294Z,99.90
2019-03-10T01:27:04.160Z,99.90
2019-03-10T01:29:33.023Z,99.90
2019-03-10T01:32:21.340Z,99.90
2019-03-10T01:35:11.023Z,99.90
2019-03-10T01:37:39.887Z,99.90
2019-03-10T01:40:08.720Z,99.90
2019-03-10T01:42:37.592Z,99.90
2019-03-10T01:45:09.790Z,99.90
2019-03-10T01:47:38.951Z,99.90
2019-03-10T01:50:10.767Z,99.90
2019-03-10T01:52:39.627Z,99.90
2019-03-10T01:55:10.781Z,99.90
2019-03-10T01:57:39.675Z,99.90
2019-03-10T02:00:14.740Z,99.90
2019-03-10T02:02:43.582Z,99.90
2019-03-10T02:05:12.448Z,99.90
2019-03-10T02:07:41.328Z,99.90
2019-03-10T02:10:12.048Z,99.90
2019-03-10T02:12:40.861Z,99.90
2019-03-10T02:15:12.847Z,99.90
2019-03-10T02:17:41.723Z,99.90
2019-03-10T02:20:13.475Z,99.90
2019-03-10T02:22:42.300Z,99.90
2019-03-10T02:25:11.355Z,99.90
2019-03-10T02:27:40.160Z,99.90
2019-03-10T02:30:12.129Z,99.90
2019-03-10T02:32:41.008Z,99.90
2019-03-10T02:35:09.812Z,99.90
2019-03-10T02:37:38.675Z,99.90
2019-03-10T02:40:08.273Z,99.90
2019-03-10T02:42:37.180Z,99.90
2019-03-10T02:45:07.622Z,99.90
2019-03-10T02:47:36.477Z,99.90
2019-03-10T02:50:07.839Z,99.90
2019-03-10T02:52:36.716Z,99.90
2019-03-10T02:55:07.954Z,99.90
2019-03-10T02:57:36.780Z,99.90
2019-03-10T03:00:11.200Z,99.90
2019-03-10T03:02:44.680Z,99.90
2019-03-10T03:05:14.364Z,99.90
2019-03-10T03:07:43.196Z,99.90
2019-03-10T03:10:13.557Z,99.90
2019-03-10T03:12:42.379Z,99.90
2019-03-10T03:15:11.658Z,99.90
2019-03-10T03:17:40.453Z,99.90
2019-03-10T03:20:11.799Z,99.90
2019-03-10T03:22:40.604Z,99.90
2019-03-10T03:25:11.479Z,99.90
2019-03-10T03:27:40.291Z,99.90
2019-03-10T03:30:19.079Z,99.90
2019-03-10T03:32:48.025Z,99.90
2019-03-10T03:35:45.488Z,99.50
2019-03-10T03:38:15.179Z,98.80
2019-03-10T03:40:46.957Z,97.10
2019-03-10T03:43:15.795Z,96.60
2019-03-10T03:45:44.705Z,97.10
2019-03-10T03:48:13.623Z,98.40
2019-03-10T03:50:42.494Z,98.00
2019-03-10T03:53:11.328Z,98.30
2019-03-10T03:55:40.187Z,98.20
2019-03-10T03:58:09.050Z,98.40
2019-03-10T04:00:37.951Z,99.40
2019-03-10T04:03:06.720Z,98.40
2019-03-10T04:05:35.564Z,98.40
2019-03-10T04:08:04.381Z,98.10
2019-03-10T04:10:33.266Z,98.50
2019-03-10T04:13:02.077Z,98.60
2019-03-10T04:15:30.903Z,98.00
2019-03-10T04:17:59.764Z,97.60
2019-03-10T04:20:28.681Z,96.80
2019-03-10T04:22:57.576Z,97.00
2019-03-10T04:25:26.471Z,98.10
2019-03-10T04:27:55.280Z,98.80
2019-03-10T04:30:24.148Z,98.50
2019-03-10T04:32:53.022Z,97.50
2019-03-10T04:35:26.621Z,97.50
2019-03-10T04:37:55.428Z,97.00
2019-03-10T04:40:24.295Z,97.20
2019-03-10T04:42:53.113Z,97.00
2019-03-10T04:45:22.003Z,97.20
2019-03-10T04:47:50.928Z,96.60
2019-03-10T04:50:19.834Z,97.30
2019-03-10T04:52:48.735Z,97.70
2019-03-10T04:55:35.555Z,98.20
2019-03-10T04:58:08.991Z,99.10
2019-03-10T05:00:39.371Z,99.20
2019-03-10T05:03:08.304Z,98.90
2019-03-10T05:05:37.108Z,96.90
2019-03-10T05:08:05.981Z,95.80
2019-03-10T05:10:34.786Z,94.50
2019-03-10T05:13:03.691Z,92.50
2019-03-10T05:15:32.596Z,92.60
2019-03-10T05:18:01.458Z,92.40
2019-03-10T05:20:30.318Z,92.50
2019-03-10T05:23:27.421Z,92.70
2019-03-10T05:25:56.737Z,92.90
2019-03-10T05:28:25.551Z,94.60
2019-03-10T05:30:54.384Z,94.90
2019-03-10T05:33:23.248Z,95.90
2019-03-10T05:35:52.141Z,96.00
2019-03-10T05:38:20.970Z,96.00
2019-03-10T05:40:49.808Z,96.30
2019-03-10T05:43:18.697Z,97.60
2019-03-10T05:45:47.487Z,98.10
2019-03-10T05:48:16.299Z,98.70
2019-03-10T05:50:45.131Z,99.30
2019-03-10T05:53:14.042Z,99.70
2019-03-10T05:55:42.847Z,99.90
2019-03-10T05:58:11.690Z,99.90
2019-03-10T06:00:43.027Z,99.90
2019-03-10T06:03:11.015Z,99.90
2019-03-10T06:05:39.893Z,99.90
2019-03-10T06:08:08.767Z,99.90
2019-03-10T06:10:37.715Z,99.90
2019-03-10T06:13:06.556Z,99.90
2019-03-10T06:15:35.355Z,99.90
2019-03-10T06:18:12.988Z,99.90
2019-03-10T06:20:34.686Z,99.90
2019-03-10T06:23:03.524Z,99.90
2019-03-10T06:25:35.003Z,99.90
2019-03-10T06:28:02.888Z,99.90
2019-03-10T06:30:31.746Z,99.90
2019-03-10T06:33:00.608Z,99.90
2019-03-10T06:35:29.443Z,99.90
2019-03-10T06:37:58.269Z,99.90
2019-03-10T06:40:32.070Z,99.90
2019-03-10T06:42:57.594Z,99.90
2019-03-10T06:45:26.479Z,99.90
2019-03-10T06:47:55.271Z,99.90
2019-03-10T06:50:24.100Z,99.90
2019-03-10T06:52:52.961Z,99.90
2019-03-10T06:55:26.683Z,99.90
2019-03-10T06:57:55.822Z,99.90
2019-03-10T07:00:24.616Z,99.90
2019-03-10T07:02:53.433Z,99.90
2019-03-10T07:05:22.321Z,99.90
2019-03-10T07:07:51.147Z,99.90
2019-03-10T07:10:20.018Z,99.90
2019-03-10T07:12:48.831Z,99.90
2019-03-10T07:15:17.828Z,99.90
2019-03-10T07:17:46.665Z,99.90
2019-03-10T07:20:20.129Z,99.90
2019-03-10T07:22:48.981Z,99.90
2019-03-10T07:25:17.816Z,99.90
2019-03-10T07:28:03.174Z,99.90
2019-03-10T07:30:36.615Z,99.90
2019-03-10T07:33:06.984Z,99.90
2019-03-10T07:35:43.241Z,99.90
2019-03-10T07:38:30.238Z,99.90
2019-03-10T07:41:03.394Z,99.90
2019-03-10T07:43:34.739Z,99.90
2019-03-10T07:46:14.328Z,99.90
2019-03-10T07:48:56.729Z,99.90
2019-03-10T07:51:29.611Z,99.90
2019-03-10T07:54:16.223Z,99.90
2019-03-10T07:56:52.386Z,99.90
2019-03-10T07:59:31.402Z,99.70
2019-03-10T08:02:01.822Z,98.30
2019-03-10T08:04:44.310Z,99.80
2019-03-10T08:07:24.034Z,98.80
2019-03-10T08:10:06.483Z,98.90
2019-03-10T08:12:36.876Z,97.80
2019-03-10T08:15:11.992Z,98.50
2019-03-10T08:17:48.141Z,98.20
2019-03-10T08:20:24.728Z,97.30
2019-03-10T08:22:55.072Z,97.00
2019-03-10T08:25:28.209Z,96.70
2019-03-10T08:28:02.156Z,96.30
2019-03-10T08:30:38.721Z,95.00
2019-03-10T08:33:18.125Z,94.10
2019-03-10T08:35:48.655Z,93.20
2019-03-10T08:38:19.237Z,93.10
2019-03-10T08:41:06.160Z,94.20
2019-03-10T08:43:36.700Z,95.20
2019-03-10T08:46:07.198Z,95.40
2019-03-10T08:48:46.729Z,96.60
2019-03-10T08:51:32.160Z,97.10
2019-03-10T08:54:02.692Z,97.00
2019-03-10T08:56:33.147Z,97.80
2019-03-10T08:59:15.703Z,98.40
2019-03-10T09:02:01.104Z,98.90
2019-03-10T09:04:55.157Z,99.20
2019-03-10T09:07:31.280Z,99.60
2019-03-10T09:10:18.248Z,99.90
2019-03-10T09:12:54.758Z,99.90
2019-03-10T09:15:34.213Z,99.90
2019-03-10T09:18:04.656Z,99.90
2019-03-10T09:20:38.063Z,99.90
2019-03-10T09:23:11.296Z,99.90
2019-03-10T09:25:41.696Z,99.90
2019-03-10T09:28:28.319Z,99.90
2019-03-10T09:30:58.688Z,99.90
2019-03-10T09:33:41.095Z,99.90
2019-03-10T09:36:14.388Z,99.90
2019-03-10T09:38:53.888Z,99.90
2019-03-10T09:41:24.336Z,99.90
2019-03-10T09:44:10.072Z,99.90
2019-03-10T09:46:40.511Z,99.90
2019-03-10T09:49:16.892Z,99.90
2019-03-10T09:51:50.277Z,99.90
2019-03-10T09:54:23.590Z,99.90
2019-03-10T09:56:54.004Z,99.90
2019-03-10T09:59:30.467Z,99.90
2019-03-10T10:02:05.233Z,99.90
2019-03-10T10:04:38.658Z,99.90
2019-03-10T10:07:15.096Z,99.90
2019-03-10T10:09:45.475Z,99.90
2019-03-10T10:12:20.540Z,99.90
2019-03-10T10:14:56.998Z,99.90
2019-03-10T10:17:36.713Z,99.90
2019-03-10T10:20:08.265Z,99.90
2019-03-10T10:22:41.523Z,99.90
2019-03-10T10:25:18.001Z,99.90
2019-03-10T10:27:57.438Z,99.90
2019-03-10T10:30:30.829Z,99.90
2019-03-10T10:33:01.220Z,99.90
2019-03-10T10:35:41.003Z,99.90
2019-03-10T10:38:18.739Z,99.90
2019-03-10T10:40:46.300Z,99.90
2019-03-10T10:43:28.476Z,99.90
2019-03-10T10:45:59.018Z,99.90
2019-03-10T10:48:41.803Z,99.90
2019-03-10T10:51:15.370Z,99.90
2019-03-10T10:53:45.752Z,99.90
2019-03-10T10:56:34.597Z,99.90
2019-03-10T10:59:04.959Z,99.90
2019-03-10T11:01:50.268Z,99.90
2019-03-10T11:04:20.649Z,99.90
2019-03-10T11:07:07.447Z,99.90
2019-03-10T11:09:44.131Z,99.90
2019-03-10T11:12:18.031Z,99.90
2019-03-10T11:14:57.472Z,99.90
2019-03-10T11:17:27.897Z,99.90
2019-03-10T11:20:01.125Z,99.90
2019-03-10T11:22:31.520Z,99.90
2019-03-10T11:25:18.510Z,99.90
2019-03-10T11:27:51.594Z,99.90
2019-03-10T11:30:38.106Z,99.90
2019-03-10T11:33:24.658Z,99.90
2019-03-10T11:36:11.280Z,99.90
2019-03-10T11:38:41.719Z,99.90
2019-03-10T11:41:14.937Z,99.90
2019-03-10T11:43:45.408Z,99.90
2019-03-10T11:46:23.554Z,99.90
2019-03-10T11:48:56.975Z,99.90
2019-03-10T11:51:27.409Z,99.90
2019-03-10T11:54:09.915Z,99.90
2019-03-10T11:56:56.934Z,99.90
2019-03-10T11:59:43.668Z,99.90
2019-03-10T12:02:16.497Z,99.90
2019-03-10T12:04:49.225Z,99.90
2019-03-10T12:07:19.971Z,99.90
2019-03-10T12:09:48.851Z,99.90
2019-03-10T12:12:17.757Z,99.90
2019-03-10T12:14:46.789Z,99.90
2019-03-10T12:17:15.926Z,99.90
2019-03-10T12:19:44.811Z,99.90
2019-03-10T12:22:13.716Z,99.90
2019-03-10T12:24:42.694Z,99.90
2019-03-10T12:27:11.638Z,99.90
2019-03-10T12:29:40.457Z,99.90
2019-03-10T12:32:09.240Z,99.90
2019-03-10T12:34:38.107Z,99.90
2019-03-10T12:37:07.008Z,99.90
2019-03-10T12:39:35.836Z,99.90
2019-03-10T12:42:04.679Z,99.90
2019-03-10T12:44:33.591Z,99.90
2019-03-10T12:47:02.414Z,99.90
2019-03-10T12:49:31.267Z,99.90
2019-03-10T12:52:00.117Z,99.90
2019-03-10T12:54:29.102Z,99.90
2019-03-10T12:56:57.956Z,99.90
2019-03-10T12:59:26.774Z,99.90
2019-03-10T13:01:55.644Z,99.90
2019-03-10T13:04:24.468Z,99.90
2019-03-10T13:06:53.322Z,99.90
2019-03-10T13:09:22.177Z,99.90
2019-03-10T13:11:50.972Z,99.90
2019-03-10T13:14:19.810Z,99.90
2019-03-10T13:16:48.771Z,99.90
2019-03-10T13:19:17.587Z,99.90
2019-03-10T13:21:46.577Z,99.90
2019-03-10T13:24:15.376Z,99.90
2019-03-10T13:26:44.238Z,99.90
2019-03-10T13:29:13.078Z,99.90
2019-03-10T13:31:41.942Z,99.10
2019-03-10T13:34:10.800Z,98.50
2019-03-10T13:36:39.602Z,98.10
2019-03-10T13:39:08.482Z,96.80
2019-03-10T13:41:37.471Z,96.90
2019-03-10T13:44:06.379Z,96.40
2019-03-10T13:46:35.342Z,91.90
2019-03-10T13:49:04.224Z,91.70
2019-03-10T13:51:33.153Z,88.80
2019-03-10T13:54:10.592Z,86.30
2019-03-10T13:56:39.387Z,86.10
2019-03-10T13:59:08.382Z,84.70
2019-03-10T14:01:37.187Z,85.20
2019-03-10T14:04:06.047Z,83.60
2019-03-10T14:06:34.858Z,84.90
2019-03-10T14:09:04.739Z,87.90
2019-03-10T14:11:33.540Z,90.10
2019-03-10T14:14:02.393Z,91.10
2019-03-10T14:16:31.248Z,92.00
2019-03-10T14:19:00.070Z,93.60
2019-03-10T14:21:29.020Z,94.00
2019-03-10T14:23:57.968Z,94.50
2019-03-10T14:26:26.822Z,95.30
2019-03-10T14:28:55.713Z,94.80
2019-03-10T14:31:24.650Z,94.90
2019-03-10T14:33:57.075Z,95.00
2019-03-10T14:36:25.325Z,95.20
2019-03-10T14:38:54.148Z,95.80
2019-03-10T14:41:22.987Z,95.50
2019-03-10T14:43:51.800Z,95.90
2019-03-10T14:46:20.618Z,95.30
2019-03-10T14:48:49.471Z,94.10
2019-03-10T14:51:18.337Z,94.30
2019-03-10T14:53:47.191Z,91.70
2019-03-10T14:56:16.002Z,91.20
2019-03-10T14:58:44.892Z,91.20
2019-03-10T15:01:13.730Z,90.70
2019-03-10T15:03:42.590Z,90.50
2019-03-10T15:06:11.385Z,89.70
2019-03-10T15:08:40.282Z,90.40
2019-03-10T15:11:09.093Z,89.60
2019-03-10T15:13:37.950Z,89.10
2019-03-10T15:16:06.826Z,90.70
2019-03-10T15:18:35.645Z,90.80
2019-03-10T15:21:05.123Z,90.60
2019-03-10T15:23:33.932Z,90.30
2019-03-10T15:26:02.789Z,90.20
2019-03-10T15:28:31.640Z,90.20
2019-03-10T15:31:00.500Z,88.20
2019-03-10T15:33:29.327Z,88.00
2019-03-10T15:35:58.164Z,87.30
2019-03-10T15:38:27.026Z,89.70
2019-03-10T15:40:55.956Z,88.80
2019-03-10T15:43:24.856Z,88.60
2019-03-10T15:45:53.635Z,88.40
2019-03-10T15:48:22.490Z,88.80
2019-03-10T15:50:51.378Z,87.90
2019-03-10T15:53:20.220Z,88.00
2019-03-10T15:55:49.119Z,88.90
2019-03-10T15:58:18.001Z,88.20
2019-03-10T16:00:46.795Z,88.40
2019-03-10T16:03:15.671Z,87.20
2019-03-10T16:05:44.515Z,87.90
2019-03-10T16:08:13.432Z,87.60
2019-03-10T16:10:44.767Z,89.00
2019-03-10T16:13:12.788Z,87.60
2019-03-10T16:15:41.674Z,88.80
2019-03-10T16:18:10.596Z,86.10
2019-03-10T16:20:39.486Z,89.90
2019-03-10T16:23:08.347Z,88.40
2019-03-10T16:25:37.194Z,90.20
2019-03-10T16:28:06.147Z,87.20
2019-03-10T16:30:35.056Z,87.70
2019-03-10T16:33:03.944Z,87.70
2019-03-10T16:35:32.989Z,84.70
2019-03-10T16:38:02.949Z,84.10
2019-03-10T16:40:31.824Z,84.60
2019-03-10T16:43:02.175Z,83.00
2019-03-10T16:45:31.102Z,84.00
2019-03-10T16:47:59.939Z,81.10
2019-03-10T16:50:29.509Z,82.30
2019-03-10T16:52:58.445Z,80.60
2019-03-10T16:55:27.421Z,78.60
2019-03-10T16:57:56.240Z,79.10
2019-03-10T17:00:25.128Z,76.20
2019-03-10T17:02:53.955Z,75.50
2019-03-10T17:05:23.646Z,75.90
2019-03-10T17:07:52.543Z,76.80
2019-03-10T17:10:28.181Z,76.30
2019-03-10T17:12:58.486Z,75.50
2019-03-10T17:15:27.485Z,78.20
2019-03-10T17:17:56.373Z,75.70
2019-03-10T17:20:25.217Z,72.40
2019-03-10T17:22:54.149Z,73.60
2019-03-10T17:25:23.049Z,70.40
2019-03-10T17:27:51.878Z,74.40
2019-03-10T17:30:22.380Z,70.90
2019-03-10T17:32:51.538Z,72.60
2019-03-10T17:35:22.272Z,75.00
2019-03-10T17:37:51.262Z,71.80
2019-03-10T17:40:22.297Z,74.10
2019-03-10T17:42:51.151Z,71.90
2019-03-10T17:45:23.739Z,72.00
2019-03-10T17:47:52.584Z,74.70
2019-03-10T17:50:21.649Z,76.90
2019-03-10T17:52:51.039Z,79.70
2019-03-10T17:55:24.099Z,83.20
2019-03-10T17:57:52.964Z,84.90
2019-03-10T18:00:23.868Z,86.70
2019-03-10T18:02:52.745Z,87.90
2019-03-10T18:05:21.580Z,88.90
2019-03-10T18:07:50.486Z,90.20
2019-03-10T18:10:19.455Z,89.90
2019-03-10T18:12:48.379Z,89.90
2019-03-10T18:15:18.942Z,89.00
2019-03-10T18:17:49.239Z,88.70
2019-03-10T18:20:22.540Z,90.50
2019-03-10T18:22:51.703Z,89.00
2019-03-10T18:25:20.577Z,89.60
2019-03-10T18:27:49.480Z,89.50
2019-03-10T18:30:22.628Z,89.60
2019-03-10T18:32:51.563Z,90.10
2019-03-10T18:35:20.575Z,90.00
2019-03-10T18:37:49.508Z,90.50
2019-03-10T18:40:26.530Z,89.30
2019-03-10T18:42:55.394Z,89.30
2019-03-10T18:45:24.289Z,89.40
2019-03-10T18:47:53.188Z,88.70
2019-03-10T18:50:26.872Z,88.60
2019-03-10T18:52:57.027Z,88.10
2019-03-10T18:55:26.000Z,88.20
2019-03-10T18:57:54.884Z,89.60
2019-03-10T19:00:25.946Z,89.50
2019-03-10T19:02:54.949Z,89.70
2019-03-10T19:05:23.913Z,90.10
2019-03-10T19:07:52.874Z,90.30
2019-03-10T19:10:21.924Z,90.50
2019-03-10T19:12:50.826Z,90.40
2019-03-10T19:15:27.248Z,90.20
2019-03-10T19:17:56.233Z,90.40
2019-03-10T19:20:25.559Z,90.30
2019-03-10T19:22:54.450Z,90.20
2019-03-10T19:25:23.376Z,90.40
2019-03-10T19:27:52.325Z,91.80
2019-03-10T19:30:24.813Z,91.60
2019-03-10T19:32:53.711Z,92.30
2019-03-10T19:35:22.653Z,91.90
2019-03-10T19:37:51.567Z,91.70
2019-03-10T19:40:24.609Z,90.80
2019-03-10T19:42:53.647Z,88.80
2019-03-10T19:45:23.774Z,84.40
2019-03-10T19:47:52.842Z,82.30
2019-03-10T19:50:29.597Z,79.50
2019-03-10T19:52:58.510Z,80.40
2019-03-10T19:55:27.496Z,77.90
2019-03-10T19:57:56.414Z,74.90
2019-03-10T20:00:25.309Z,72.80
2019-03-10T20:02:54.140Z,68.90
2019-03-10T20:05:23.000Z,68.40
2019-03-10T20:07:51.866Z,65.20
2019-03-10T20:10:22.051Z,67.00
2019-03-10T20:12:51.099Z,65.00
2019-03-10T20:15:22.155Z,67.50
2019-03-10T20:17:52.596Z,68.10
2019-03-10T20:20:23.828Z,68.30
2019-03-10T20:22:52.641Z,67.50
2019-03-10T20:25:21.542Z,69.50
2019-03-10T20:27:50.486Z,67.80
2019-03-10T20:30:27.166Z,67.80
2019-03-10T20:32:56.107Z,68.50
2019-03-10T20:35:24.987Z,67.70
2019-03-10T20:37:53.855Z,67.40
2019-03-10T20:40:24.383Z,69.70
2019-03-10T20:42:53.312Z,71.40
2019-03-10T20:45:24.259Z,71.50
2019-03-10T20:47:52.801Z,71.40
2019-03-10T20:50:22.886Z,71.10
2019-03-10T20:52:51.789Z,71.50
2019-03-10T20:55:20.680Z,70.70
2019-03-10T20:57:49.526Z,68.30
2019-03-10T21:00:21.369Z,68.20
2019-03-10T21:02:50.235Z,68.50
2019-03-10T21:05:19.088Z,70.70
2019-03-10T21:07:48.028Z,68.80
2019-03-10T21:10:18.852Z,70.70
2019-03-10T21:12:47.835Z,70.40
2019-03-10T21:15:26.218Z,72.30
2019-03-10T21:17:55.378Z,72.20
2019-03-10T21:20:25.464Z,70.80
2019-03-10T21:22:54.423Z,71.40
2019-03-10T21:25:31.962Z,69.70
2019-03-10T21:28:00.932Z,68.70
2019-03-10T21:30:31.216Z,64.60
2019-03-10T21:33:00.196Z,65.90
2019-03-10T21:35:29.010Z,65.90
2019-03-10T21:37:57.854Z,64.40
2019-03-10T21:40:31.467Z,65.60
2019-03-10T21:43:00.322Z,64.40
2019-03-10T21:45:29.167Z,63.80
2019-03-10T21:47:58.028Z,64.60
2019-03-10T21:50:26.849Z,63.00
2019-03-10T21:52:55.688Z,62.30
2019-03-10T21:55:24.592Z,62.70
2019-03-10T21:57:53.420Z,60.20
2019-03-10T22:00:22.236Z,59.60
2019-03-10T22:02:51.093Z,60.50
2019-03-10T22:05:19.983Z,60.70
2019-03-10T22:07:48.933Z,60.60
2019-03-10T22:10:27.027Z,59.40
2019-03-10T22:12:49.471Z,58.10
2019-03-10T22:15:19.570Z,57.30
2019-03-10T22:17:48.395Z,57.80
2019-03-10T22:20:18.256Z,57.00
2019-03-10T22:22:49.581Z,57.30
2019-03-10T22:25:17.741Z,57.20
2019-03-10T22:27:46.686Z,57.80
2019-03-10T22:30:23.196Z,57.60
2019-03-10T22:32:52.108Z,58.60
2019-03-10T22:35:20.936Z,58.60
2019-03-10T22:37:49.811Z,59.60
2019-03-10T22:40:18.856Z,60.30
2019-03-10T22:42:47.823Z,61.90
2019-03-10T22:45:17.609Z,63.20
2019-03-10T22:47:46.466Z,65.00
2019-03-10T22:50:16.117Z,62.90
2019-03-10T22:52:45.243Z,62.90
2019-03-10T22:55:15.605Z,61.60
2019-03-10T22:57:44.443Z,61.20
2019-03-10T23:00:16.256Z,61.80
2019-03-10T23:02:45.078Z,63.20
2019-03-10T23:05:13.896Z,62.70
2019-03-10T23:07:42.736Z,63.90
2019-03-10T23:10:14.274Z,64.10
2019-03-10T23:12:43.132Z,64.30
2019-03-10T23:15:13.376Z,64.40
2019-03-10T23:17:42.332Z,65.50
2019-03-10T23:20:15.700Z,65.30
2019-03-10T23:22:44.880Z,67.00
2019-03-10T23:25:13.878Z,67.40
2019-03-10T23:27:42.688Z,67.90
2019-03-10T23:30:16.533Z,72.90
2019-03-10T23:32:45.361Z,85.20
2019-03-10T23:35:14.424Z,91.20
2019-03-10T23:37:43.263Z,91.00
2019-03-10T23:40:16.979Z,91.50
2019-03-10T23:42:45.892Z,90.60
2019-03-10T23:45:18.963Z,92.60
2019-03-10T23:47:48.062Z,90.90
2019-03-10T23:50:18.136Z,91.90
2019-03-10T23:52:46.971Z,92.50
2019-03-10T23:55:15.856Z,90.70
2019-03-10T23:57:44.816Z,91.90
